sensor_id;sensor_type;location;lat;lon;timestamp;pressure;altitude;pressure_sealevel;temperature;humidity
13705;BME280;6924;52.122;9.952;2023-04-01T00:02:19;98485.00;;;9.06;100.00
13705;BME280;6924;52.122;9.952;2023-04-01T00:04:46;98488.16;;;9.05;100.00
13705;BME280;6924;52.122;9.952;2023-04-01T00:07:13;98487.34;;;9.04;100.00
13705;BME280;6924;52.122;9.952;2023-04-01T00:09:40;98481.78;;;9.08;100.00
13705;BME280;6924;52.122;9.952;2023-04-01T00:12:07;98486.16;;;9.05;100.00
13705;BME280;6924;52.122;9.952;2023-04-01T00:14:33;98493.44;;;9.06;100.00
13705;BME280;6924;52.122;9.952;2023-04-01T00:17:02;98486.63;;;9.07;100.00
13705;BME280;6924;52.122;9.952;2023-04-01T00:19:29;98487.34;;;9.04;100.00
13705;BME280;6924;52.122;9.952;2023-04-01T00:21:55;98490.03;;;9.13;100.00
13705;BME280;6924;52.122;9.952;2023-04-01T00:24:24;98492.47;;;9.15;100.00
13705;BME280;6924;52.122;9.952;2023-04-01T00:26:51;98490.50;;;9.15;100.00
13705;BME280;6924;52.122;9.952;2023-04-01T00:29:17;98484.53;;;9.04;100.00
13705;BME280;6924;52.122;9.952;2023-04-01T00:31:44;98484.28;;;9.09;100.00
13705;BME280;6924;52.122;9.952;2023-04-01T00:34:11;98488.75;;;9.10;100.00
13705;BME280;6924;52.122;9.952;2023-04-01T00:36:38;98490.16;;;9.04;100.00
13705;BME280;6924;52.122;9.952;2023-04-01T00:39:04;98484.00;;;9.15;100.00
13705;BME280;6924;52.122;9.952;2023-04-01T00:41:32;98484.72;;;9.12;100.00
13705;BME280;6924;52.122;9.952;2023-04-01T00:44:20;98477.47;;;9.10;100.00
13705;BME280;6924;52.122;9.952;2023-04-01T00:46:48;98484.38;;;9.13;100.00
13705;BME280;6924;52.122;9.952;2023-04-01T00:49:17;98487.91;;;9.10;100.00
13705;BME280;6924;52.122;9.952;2023-04-01T00:51:45;98482.16;;;9.06;100.00
13705;BME280;6924;52.122;9.952;2023-04-01T00:54:15;98475.94;;;9.13;100.00
13705;BME280;6924;52.122;9.952;2023-04-01T00:56:46;98480.63;;;9.09;100.00
13705;BME280;6924;52.122;9.952;2023-04-01T00:59:17;98486.28;;;9.09;100.00
13705;BME280;6924;52.122;9.952;2023-04-01T01:01:46;98487.91;;;9.10;100.00
13705;BME280;6924;52.122;9.952;2023-04-01T01:04:21;98488.75;;;9.10;100.00
13705;BME280;6924;52.122;9.952;2023-04-01T01:06:53;98489.91;;;9.09;100.00
13705;BME280;6924;52.122;9.952;2023-04-01T01:09:30;98488.75;;;8.98;100.00
13705;BME280;6924;52.122;9.952;2023-04-01T01:12:07;98486.06;;;9.02;100.00
13705;BME280;6924;52.122;9.952;2023-04-01T01:14:43;98484.88;;;8.90;100.00
13705;BME280;6924;52.122;9.952;2023-04-01T01:17:14;98489.81;;;8.94;100.00
13705;BME280;6924;52.122;9.952;2023-04-01T01:19:56;98482.53;;;8.93;100.00
13705;BME280;6924;52.122;9.952;2023-04-01T01:22:35;98481.03;;;8.95;100.00
13705;BME280;6924;52.122;9.952;2023-04-01T01:25:16;98481.47;;;8.97;100.00
13705;BME280;6924;52.122;9.952;2023-04-01T01:27:49;98476.66;;;8.98;100.00
13705;BME280;6924;52.122;9.952;2023-04-01T01:30:32;98469.38;;;8.97;100.00
13705;BME280;6924;52.122;9.952;2023-04-01T01:33:24;98480.19;;;8.95;100.00
13705;BME280;6924;52.122;9.952;2023-04-01T01:36:02;98482.31;;;8.98;100.00
13705;BME280;6924;52.122;9.952;2023-04-01T01:38:33;98477.94;;;8.88;100.00
13705;BME280;6924;52.122;9.952;2023-04-01T01:41:01;98483.84;;;8.95;100.00
13705;BME280;6924;52.122;9.952;2023-04-01T01:43:30;98473.50;;;8.87;100.00
13705;BME280;6924;52.122;9.952;2023-04-01T01:46:01;98481.50;;;8.85;100.00
13705;BME280;6924;52.122;9.952;2023-04-01T01:48:31;98482.19;;;8.82;100.00
13705;BME280;6924;52.122;9.952;2023-04-01T01:51:00;98475.72;;;8.94;100.00
13705;BME280;6924;52.122;9.952;2023-04-01T01:53:26;98480.31;;;8.98;100.00
13705;BME280;6924;52.122;9.952;2023-04-01T01:55:53;98480.19;;;8.95;100.00
13705;BME280;6924;52.122;9.952;2023-04-01T01:58:22;98490.28;;;8.96;100.00
13705;BME280;6924;52.122;9.952;2023-04-01T02:00:52;98483.81;;;9.07;100.00
13705;BME280;6924;52.122;9.952;2023-04-01T02:03:21;98483.38;;;8.93;100.00
13705;BME280;6924;52.122;9.952;2023-04-01T02:05:49;98488.16;;;8.93;100.00
13705;BME280;6924;52.122;9.952;2023-04-01T02:08:22;98487.09;;;8.97;100.00
13705;BME280;6924;52.122;9.952;2023-04-01T02:10:56;98487.56;;;8.99;100.00
13705;BME280;6924;52.122;9.952;2023-04-01T02:13:28;98489.44;;;9.07;100.00
13705;BME280;6924;52.122;9.952;2023-04-01T02:15:59;98492.94;;;9.17;100.00
13705;BME280;6924;52.122;9.952;2023-04-01T02:18:28;98492.59;;;9.18;100.00
13705;BME280;6924;52.122;9.952;2023-04-01T02:20:57;98496.59;;;9.17;100.00
13705;BME280;6924;52.122;9.952;2023-04-01T02:23:27;98485.88;;;9.23;100.00
13705;BME280;6924;52.122;9.952;2023-04-01T02:25:54;98494.56;;;9.30;100.00
13705;BME280;6924;52.122;9.952;2023-04-01T02:28:23;98492.00;;;9.25;100.00
13705;BME280;6924;52.122;9.952;2023-04-01T02:30:51;98491.25;;;9.28;100.00
13705;BME280;6924;52.122;9.952;2023-04-01T02:33:18;98489.63;;;9.27;100.00
13705;BME280;6924;52.122;9.952;2023-04-01T02:35:45;98483.28;;;9.30;100.00
13705;BME280;6924;52.122;9.952;2023-04-01T02:38:12;98490.78;;;9.26;100.00
13705;BME280;6924;52.122;9.952;2023-04-01T02:40:44;98491.38;;;9.31;100.00
13705;BME280;6924;52.122;9.952;2023-04-01T02:43:11;98491.63;;;9.26;100.00
13705;BME280;6924;52.122;9.952;2023-04-01T02:45:38;98489.63;;;9.27;100.00
13705;BME280;6924;52.122;9.952;2023-04-01T02:48:04;98491.78;;;9.18;100.00
13705;BME280;6924;52.122;9.952;2023-04-01T02:50:31;98500.44;;;9.25;100.00
13705;BME280;6924;52.122;9.952;2023-04-01T02:52:58;98497.97;;;9.23;100.00
13705;BME280;6924;52.122;9.952;2023-04-01T02:55:24;98501.66;;;9.12;100.00
13705;BME280;6924;52.122;9.952;2023-04-01T02:57:52;98501.78;;;9.15;100.00
13705;BME280;6924;52.122;9.952;2023-04-01T03:00:19;98500.13;;;9.14;100.00
13705;BME280;6924;52.122;9.952;2023-04-01T03:02:45;98498.25;;;9.18;100.00
13705;BME280;6924;52.122;9.952;2023-04-01T03:05:11;98499.31;;;9.14;100.00
13705;BME280;6924;52.122;9.952;2023-04-01T03:07:38;98498.59;;;9.17;100.00
13705;BME280;6924;52.122;9.952;2023-04-01T03:10:05;98499.06;;;9.19;100.00
13705;BME280;6924;52.122;9.952;2023-04-01T03:12:32;98505.06;;;9.17;100.00
13705;BME280;6924;52.122;9.952;2023-04-01T03:15:00;98497.16;;;9.23;100.00
13705;BME280;6924;52.122;9.952;2023-04-01T03:17:26;98503.88;;;9.18;100.00
13705;BME280;6924;52.122;9.952;2023-04-01T03:19:53;98513.53;;;9.17;100.00
13705;BME280;6924;52.122;9.952;2023-04-01T03:22:19;98505.75;;;9.14;100.00
13705;BME280;6924;52.122;9.952;2023-04-01T03:24:46;98510.59;;;9.14;100.00
13705;BME280;6924;52.122;9.952;2023-04-01T03:27:13;98506.22;;;9.16;100.00
13705;BME280;6924;52.122;9.952;2023-04-01T03:29:39;98499.06;;;9.19;100.00
13705;BME280;6924;52.122;9.952;2023-04-01T03:32:07;98498.34;;;9.22;100.00
13705;BME280;6924;52.122;9.952;2023-04-01T03:34:34;98506.22;;;9.28;100.00
13705;BME280;6924;52.122;9.952;2023-04-01T03:37:00;98502.25;;;9.17;100.00
13705;BME280;6924;52.122;9.952;2023-04-01T03:39:27;98505.91;;;9.05;100.00
13705;BME280;6924;52.122;9.952;2023-04-01T03:41:53;98500.38;;;9.09;100.00
13705;BME280;6924;52.122;9.952;2023-04-01T03:44:19;98503.28;;;9.13;100.00
13705;BME280;6924;52.122;9.952;2023-04-01T03:46:46;98515.41;;;9.13;100.00
13705;BME280;6924;52.122;9.952;2023-04-01T03:49:13;98511.75;;;9.13;100.00
13705;BME280;6924;52.122;9.952;2023-04-01T03:51:41;98505.66;;;9.10;100.00
13705;BME280;6924;52.122;9.952;2023-04-01T03:54:08;98513.97;;;9.19;100.00
13705;BME280;6924;52.122;9.952;2023-04-01T03:56:35;98512.00;;;9.20;100.00
13705;BME280;6924;52.122;9.952;2023-04-01T03:59:03;98509.88;;;9.17;100.00
13705;BME280;6924;52.122;9.952;2023-04-01T04:01:30;98508.22;;;9.16;100.00
13705;BME280;6924;52.122;9.952;2023-04-01T04:03:56;98512.69;;;9.17;100.00
13705;BME280;6924;52.122;9.952;2023-04-01T04:06:25;98513.41;;;9.14;100.00
13705;BME280;6924;52.122;9.952;2023-04-01T04:08:51;98511.41;;;9.14;100.00
13705;BME280;6924;52.122;9.952;2023-04-01T04:11:18;98514.69;;;9.16;100.00
13705;BME280;6924;52.122;9.952;2023-04-01T04:13:45;98514.94;;;9.11;100.00
13705;BME280;6924;52.122;9.952;2023-04-01T04:16:13;98509.16;;;9.20;100.00
13705;BME280;6924;52.122;9.952;2023-04-01T04:18:39;98509.66;;;9.09;100.00
13705;BME280;6924;52.122;9.952;2023-04-01T04:21:06;98516.09;;;9.10;100.00
13705;BME280;6924;52.122;9.952;2023-04-01T04:23:33;98511.44;;;9.02;100.00
13705;BME280;6924;52.122;9.952;2023-04-01T04:26:04;98508.97;;;9.00;100.00
13705;BME280;6924;52.122;9.952;2023-04-01T04:28:31;98514.84;;;8.95;100.00
13705;BME280;6924;52.122;9.952;2023-04-01T04:30:58;98520.50;;;8.95;100.00
13705;BME280;6924;52.122;9.952;2023-04-01T04:33:25;98520.03;;;8.93;100.00
13705;BME280;6924;52.122;9.952;2023-04-01T04:35:55;98527.28;;;8.94;100.00
13705;BME280;6924;52.122;9.952;2023-04-01T04:38:22;98527.16;;;8.90;100.00
13705;BME280;6924;52.122;9.952;2023-04-01T04:40:50;98527.06;;;8.87;100.00
13705;BME280;6924;52.122;9.952;2023-04-01T04:43:17;98529.97;;;8.90;100.00
13705;BME280;6924;52.122;9.952;2023-04-01T04:45:44;98526.72;;;8.88;100.00
13705;BME280;6924;52.122;9.952;2023-04-01T04:48:12;98530.56;;;8.84;100.00
13705;BME280;6924;52.122;9.952;2023-04-01T04:50:44;98532.25;;;8.85;100.00
13705;BME280;6924;52.122;9.952;2023-04-01T04:53:11;98529.66;;;8.80;100.00
13705;BME280;6924;52.122;9.952;2023-04-01T04:55:37;98533.41;;;8.84;100.00
13705;BME280;6924;52.122;9.952;2023-04-01T04:58:05;98526.97;;;8.71;100.00
13705;BME280;6924;52.122;9.952;2023-04-01T05:00:32;98533.16;;;8.77;100.00
13705;BME280;6924;52.122;9.952;2023-04-01T05:02:58;98538.34;;;8.75;100.00
13705;BME280;6924;52.122;9.952;2023-04-01T05:05:24;98539.88;;;8.72;100.00
13705;BME280;6924;52.122;9.952;2023-04-01T05:07:51;98537.75;;;8.69;100.00
13705;BME280;6924;52.122;9.952;2023-04-01T05:10:17;98540.13;;;8.67;100.00
13705;BME280;6924;52.122;9.952;2023-04-01T05:12:46;98543.28;;;8.65;100.00
13705;BME280;6924;52.122;9.952;2023-04-01T05:15:13;98547.00;;;8.57;100.00
13705;BME280;6924;52.122;9.952;2023-04-01T05:17:40;98549.16;;;8.60;100.00
13705;BME280;6924;52.122;9.952;2023-04-01T05:20:07;98547.88;;;8.58;100.00
13705;BME280;6924;52.122;9.952;2023-04-01T05:22:33;98547.88;;;8.58;100.00
13705;BME280;6924;52.122;9.952;2023-04-01T05:25:00;98549.97;;;8.61;100.00
13705;BME280;6924;52.122;9.952;2023-04-01T05:27:26;98546.69;;;8.59;100.00
13705;BME280;6924;52.122;9.952;2023-04-01T05:29:53;98541.84;;;8.59;100.00
13705;BME280;6924;52.122;9.952;2023-04-01T05:32:21;98549.63;;;8.62;100.00
13705;BME280;6924;52.122;9.952;2023-04-01T05:34:50;98548.19;;;8.56;100.00
13705;BME280;6924;52.122;9.952;2023-04-01T05:37:16;98545.84;;;8.58;100.00
13705;BME280;6924;52.122;9.952;2023-04-01T05:39:43;98545.84;;;8.58;100.00
13705;BME280;6924;52.122;9.952;2023-04-01T05:42:09;98549.03;;;8.57;100.00
13705;BME280;6924;52.122;9.952;2023-04-01T05:44:36;98549.84;;;8.57;100.00
13705;BME280;6924;52.122;9.952;2023-04-01T05:47:04;98548.88;;;8.53;100.00
13705;BME280;6924;52.122;9.952;2023-04-01T05:49:33;98551.69;;;8.53;100.00
13705;BME280;6924;52.122;9.952;2023-04-01T05:51:59;98554.78;;;8.60;100.00
13705;BME280;6924;52.122;9.952;2023-04-01T05:54:26;98545.16;;;8.61;100.00
13705;BME280;6924;52.122;9.952;2023-04-01T05:56:54;98550.78;;;8.61;100.00
13705;BME280;6924;52.122;9.952;2023-04-01T05:59:21;98552.81;;;8.73;100.00
13705;BME280;6924;52.122;9.952;2023-04-01T06:01:47;98545.16;;;8.86;100.00
13705;BME280;6924;52.122;9.952;2023-04-01T06:04:15;98552.22;;;8.80;100.00
13705;BME280;6924;52.122;9.952;2023-04-01T06:06:44;98565.13;;;8.81;100.00
13705;BME280;6924;52.122;9.952;2023-04-01T06:09:14;98558.56;;;8.89;100.00
13705;BME280;6924;52.122;9.952;2023-04-01T06:11:51;98559.50;;;8.93;100.00
13705;BME280;6924;52.122;9.952;2023-04-01T06:14:31;98558.78;;;8.96;100.00
13705;BME280;6924;52.122;9.952;2023-04-01T06:17:14;98562.41;;;8.97;100.00
13705;BME280;6924;52.122;9.952;2023-04-01T06:19:49;98558.78;;;9.08;100.00
13705;BME280;6924;52.122;9.952;2023-04-01T06:22:59;98564.19;;;9.01;100.00
13705;BME280;6924;52.122;9.952;2023-04-01T06:25:38;98575.25;;;9.06;100.00
13705;BME280;6924;52.122;9.952;2023-04-01T06:28:35;98567.25;;;9.08;100.00
13705;BME280;6924;52.122;9.952;2023-04-01T06:31:12;98574.50;;;9.09;100.00
13705;BME280;6924;52.122;9.952;2023-04-01T06:33:52;98579.91;;;9.15;100.00
13705;BME280;6924;52.122;9.952;2023-04-01T06:36:39;98588.16;;;9.20;100.00
13705;BME280;6924;52.122;9.952;2023-04-01T06:39:18;98582.25;;;9.13;100.00
13705;BME280;6924;52.122;9.952;2023-04-01T06:42:00;98588.16;;;9.07;100.00
13705;BME280;6924;52.122;9.952;2023-04-01T06:44:37;98580.16;;;9.09;100.00
13705;BME280;6924;52.122;9.952;2023-04-01T06:47:21;98591.44;;;9.09;100.00
13705;BME280;6924;52.122;9.952;2023-04-01T06:49:56;98596.97;;;9.18;100.00
13705;BME280;6924;52.122;9.952;2023-04-01T06:52:28;98587.91;;;9.13;100.00
13705;BME280;6924;52.122;9.952;2023-04-01T06:55:12;98586.25;;;9.12;100.00
13705;BME280;6924;52.122;9.952;2023-04-01T06:57:45;98588.75;;;9.01;100.00
13705;BME280;6924;52.122;9.952;2023-04-01T07:00:15;98592.38;;;9.14;100.00
13705;BME280;6924;52.122;9.952;2023-04-01T07:02:47;98592.38;;;9.14;100.00
13705;BME280;6924;52.122;9.952;2023-04-01T07:05:19;98590.72;;;9.13;100.00
13705;BME280;6924;52.122;9.952;2023-04-01T07:07:48;98591.31;;;9.18;100.00
13705;BME280;6924;52.122;9.952;2023-04-01T07:10:20;98594.47;;;9.17;100.00
13705;BME280;6924;52.122;9.952;2023-04-01T07:12:51;98600.13;;;9.29;100.00
13705;BME280;6924;52.122;9.952;2023-04-01T07:15:22;98613.97;;;9.34;100.00
13705;BME280;6924;52.122;9.952;2023-04-01T07:17:53;98604.34;;;9.35;100.00
13705;BME280;6924;52.122;9.952;2023-04-01T07:20:24;98610.78;;;9.48;100.00
13705;BME280;6924;52.122;9.952;2023-04-01T07:22:54;98615.59;;;9.60;100.00
13705;BME280;6924;52.122;9.952;2023-04-01T07:25:26;98621.34;;;9.63;100.00
13705;BME280;6924;52.122;9.952;2023-04-01T07:27:58;98619.31;;;9.76;100.00
13705;BME280;6924;52.122;9.952;2023-04-01T07:30:29;98624.94;;;9.88;100.00
13705;BME280;6924;52.122;9.952;2023-04-01T07:33:03;98618.34;;;9.97;100.00
13705;BME280;6924;52.122;9.952;2023-04-01T07:35:37;98624.41;;;9.99;100.00
13705;BME280;6924;52.122;9.952;2023-04-01T07:38:14;98621.81;;;10.06;100.00
13705;BME280;6924;52.122;9.952;2023-04-01T07:40:50;98623.09;;;10.08;100.00
13705;BME280;6924;52.122;9.952;2023-04-01T07:43:38;98632.19;;;10.02;100.00
13705;BME280;6924;52.122;9.952;2023-04-01T07:46:17;98633.59;;;10.08;100.00
13705;BME280;6924;52.122;9.952;2023-04-01T07:48:54;98635.22;;;10.09;100.00
13705;BME280;6924;52.122;9.952;2023-04-01T07:51:29;98637.84;;;10.02;100.00
13705;BME280;6924;52.122;9.952;2023-04-01T07:54:03;98640.88;;;10.09;100.00
13705;BME280;6924;52.122;9.952;2023-04-01T07:56:39;98636.81;;;10.22;100.00
13705;BME280;6924;52.122;9.952;2023-04-01T07:59:15;98630.22;;;10.30;100.00
13705;BME280;6924;52.122;9.952;2023-04-01T08:01:52;98634.69;;;10.31;100.00
13705;BME280;6924;52.122;9.952;2023-04-01T08:04:28;98644.59;;;10.25;100.00
13705;BME280;6924;52.122;9.952;2023-04-01T08:07:00;98647.28;;;10.22;100.00
13705;BME280;6924;52.122;9.952;2023-04-01T08:09:34;98644.81;;;10.32;100.00
13705;BME280;6924;52.122;9.952;2023-04-01T08:12:13;98650.00;;;10.30;100.00
13705;BME280;6924;52.122;9.952;2023-04-01T08:14:52;98652.06;;;10.46;100.00
13705;BME280;6924;52.122;9.952;2023-04-01T08:17:28;98658.94;;;10.61;100.00
13705;BME280;6924;52.122;9.952;2023-04-01T08:20:10;98655.09;;;10.69;100.00
13705;BME280;6924;52.122;9.952;2023-04-01T08:22:42;98655.50;;;10.83;100.00
13705;BME280;6924;52.122;9.952;2023-04-01T08:25:17;98656.50;;;10.91;100.00
13705;BME280;6924;52.122;9.952;2023-04-01T08:27:48;98660.53;;;11.06;100.00
13705;BME280;6924;52.122;9.952;2023-04-01T08:30:20;98663.44;;;11.25;100.00
13705;BME280;6924;52.122;9.952;2023-04-01T08:32:50;98661.53;;;11.29;100.00
13705;BME280;6924;52.122;9.952;2023-04-01T08:35:27;98666.81;;;11.31;100.00
13705;BME280;6924;52.122;9.952;2023-04-01T08:37:55;98658.06;;;11.36;100.00
13705;BME280;6924;52.122;9.952;2023-04-01T08:40:59;98657.44;;;11.27;99.75
13705;BME280;6924;52.122;9.952;2023-04-01T08:43:54;98669.56;;;11.27;97.81
13705;BME280;6924;52.122;9.952;2023-04-01T08:46:54;98671.81;;;11.37;98.82
13705;BME280;6924;52.122;9.952;2023-04-01T08:49:37;98671.63;;;11.46;100.00
13705;BME280;6924;52.122;9.952;2023-04-01T08:52:20;98669.34;;;11.52;99.78
13705;BME280;6924;52.122;9.952;2023-04-01T08:55:01;98668.88;;;11.66;100.00
13705;BME280;6924;52.122;9.952;2023-04-01T08:57:40;98680.13;;;11.62;98.34
13705;BME280;6924;52.122;9.952;2023-04-01T09:00:22;98674.81;;;11.61;99.19
13705;BME280;6924;52.122;9.952;2023-04-01T09:03:07;98680.59;;;11.64;96.01
13705;BME280;6924;52.122;9.952;2023-04-01T09:05:41;98675.78;;;11.68;97.72
13705;BME280;6924;52.122;9.952;2023-04-01T09:08:31;98680.47;;;11.61;96.58
13705;BME280;6924;52.122;9.952;2023-04-01T09:11:27;98681.41;;;11.65;96.81
13705;BME280;6924;52.122;9.952;2023-04-01T09:14:06;98685.13;;;11.69;95.52
13705;BME280;6924;52.122;9.952;2023-04-01T09:16:51;98689.34;;;11.59;96.11
13705;BME280;6924;52.122;9.952;2023-04-01T09:19:30;98685.59;;;11.71;95.16
13705;BME280;6924;52.122;9.952;2023-04-01T09:22:30;98691.94;;;11.84;94.91
13705;BME280;6924;52.122;9.952;2023-04-01T09:25:22;98693.25;;;11.70;93.78
13705;BME280;6924;52.122;9.952;2023-04-01T09:27:56;98696.34;;;11.81;95.80
13705;BME280;6924;52.122;9.952;2023-04-01T09:30:57;98695.81;;;11.91;94.57
13705;BME280;6924;52.122;9.952;2023-04-01T09:34:06;98703.09;;;11.92;93.59
13705;BME280;6924;52.122;9.952;2023-04-01T09:36:44;98704.56;;;11.86;94.16
13705;BME280;6924;52.122;9.952;2023-04-01T09:39:32;98709.22;;;11.78;93.72
13705;BME280;6924;52.122;9.952;2023-04-01T09:42:20;98716.81;;;11.90;94.84
13705;BME280;6924;52.122;9.952;2023-04-01T09:44:52;98721.81;;;11.97;nan
13705;BME280;6924;52.122;9.952;2023-04-01T09:47:33;98724.28;;;11.98;94.07
13705;BME280;6924;52.122;9.952;2023-04-01T09:50:32;98720.97;;;12.12;95.30
13705;BME280;6924;52.122;9.952;2023-04-01T09:53:10;98727.97;;;12.18;93.52
13705;BME280;6924;52.122;9.952;2023-04-01T09:56:24;98727.78;;;12.27;93.48
13705;BME280;6924;52.122;9.952;2023-04-01T09:59:24;98729.78;;;12.27;96.43
13705;BME280;6924;52.122;9.952;2023-04-01T10:05:27;98742.56;;;12.36;96.01
13705;BME280;6924;52.122;9.952;2023-04-01T10:11:19;98742.84;;;12.31;94.38
13705;BME280;6924;52.122;9.952;2023-04-01T10:17:21;98741.94;;;12.27;94.41
13705;BME280;6924;52.122;9.952;2023-04-01T10:20:14;98756.78;;;12.20;94.56
13705;BME280;6924;52.122;9.952;2023-04-01T10:25:58;98747.31;;;12.13;95.06
13705;BME280;6924;52.122;9.952;2023-04-01T10:28:48;98751.88;;;12.17;95.32
13705;BME280;6924;52.122;9.952;2023-04-01T10:31:35;98751.72;;;12.30;96.94
13705;BME280;6924;52.122;9.952;2023-04-01T10:34:34;98752.31;;;12.39;95.64
13705;BME280;6924;52.122;9.952;2023-04-01T10:37:16;98754.53;;;12.46;96.87
13705;BME280;6924;52.122;9.952;2023-04-01T10:40:35;98744.81;;;12.47;94.98
13705;BME280;6924;52.122;9.952;2023-04-01T10:43:34;98752.19;;;12.51;96.95
13705;BME280;6924;52.122;9.952;2023-04-01T10:46:32;98751.59;;;12.42;93.74
13705;BME280;6924;52.122;9.952;2023-04-01T10:49:20;98754.66;;;12.53;97.43
13705;BME280;6924;52.122;9.952;2023-04-01T10:55:38;98760.72;;;12.71;96.91
13705;BME280;6924;52.122;9.952;2023-04-01T10:58:35;98760.63;;;12.67;96.31
13705;BME280;6924;52.122;9.952;2023-04-01T11:07:45;98763.19;;;12.72;95.08
13705;BME280;6924;52.122;9.952;2023-04-01T11:10:42;98765.41;;;12.82;94.79
13705;BME280;6924;52.122;9.952;2023-04-01T11:16:42;98768.25;;;12.82;93.58
13705;BME280;6924;52.122;9.952;2023-04-01T11:19:40;98770.94;;;12.95;94.99
13705;BME280;6924;52.122;9.952;2023-04-01T11:22:23;98780.16;;;13.11;94.54
13705;BME280;6924;52.122;9.952;2023-04-01T11:25:11;98779.56;;;13.21;93.14
13705;BME280;6924;52.122;9.952;2023-04-01T11:27:58;98780.25;;;13.15;92.89
13705;BME280;6924;52.122;9.952;2023-04-01T11:30:38;98785.13;;;13.14;91.39
13705;BME280;6924;52.122;9.952;2023-04-01T11:33:14;98783.41;;;12.90;89.59
13705;BME280;6924;52.122;9.952;2023-04-01T11:36:05;98793.50;;;12.88;89.47
13705;BME280;6924;52.122;9.952;2023-04-01T11:38:49;98784.69;;;12.93;91.10
13705;BME280;6924;52.122;9.952;2023-04-01T11:41:26;98789.53;;;13.12;90.92
13705;BME280;6924;52.122;9.952;2023-04-01T11:44:09;98786.41;;;13.20;95.08
13705;BME280;6924;52.122;9.952;2023-04-01T11:46:48;98790.16;;;13.44;93.62
13705;BME280;6924;52.122;9.952;2023-04-01T11:49:28;98795.09;;;13.47;87.99
13705;BME280;6924;52.122;9.952;2023-04-01T11:52:18;98800.47;;;13.52;89.17
13705;BME280;6924;52.122;9.952;2023-04-01T11:54:58;98802.03;;;13.73;90.42
13705;BME280;6924;52.122;9.952;2023-04-01T11:57:43;98807.66;;;13.92;90.69
13705;BME280;6924;52.122;9.952;2023-04-01T12:00:24;98799.19;;;13.96;86.70
13705;BME280;6924;52.122;9.952;2023-04-01T12:03:08;98800.72;;;13.90;84.36
13705;BME280;6924;52.122;9.952;2023-04-01T12:05:43;98801.88;;;13.89;82.67
13705;BME280;6924;52.122;9.952;2023-04-01T12:08:30;98807.78;;;13.76;85.21
13705;BME280;6924;52.122;9.952;2023-04-01T12:11:02;98806.19;;;13.79;88.35
13705;BME280;6924;52.122;9.952;2023-04-01T12:13:37;98812.22;;;13.74;85.20
13705;BME280;6924;52.122;9.952;2023-04-01T12:16:23;98800.72;;;13.90;87.92
13705;BME280;6924;52.122;9.952;2023-04-01T12:18:55;98817.75;;;13.90;88.37
13705;BME280;6924;52.122;9.952;2023-04-01T12:21:27;98814.81;;;13.82;83.60
13705;BME280;6924;52.122;9.952;2023-04-01T12:24:23;98821.03;;;13.46;85.44
13705;BME280;6924;52.122;9.952;2023-04-01T12:27:02;98813.88;;;13.55;85.27
13705;BME280;6924;52.122;9.952;2023-04-01T12:29:49;98821.72;;;13.39;85.25
13705;BME280;6924;52.122;9.952;2023-04-01T12:32:25;98816.84;;;13.39;87.89
13705;BME280;6924;52.122;9.952;2023-04-01T12:35:12;98832.75;;;13.44;86.33
13705;BME280;6924;52.122;9.952;2023-04-01T12:37:48;98823.88;;;13.46;83.48
13705;BME280;6924;52.122;9.952;2023-04-01T12:43:52;98826.13;;;13.36;83.53
13705;BME280;6924;52.122;9.952;2023-04-01T12:46:26;98828.66;;;13.41;84.74
13705;BME280;6924;52.122;9.952;2023-04-01T12:49:24;98839.91;;;13.57;85.62
13705;BME280;6924;52.122;9.952;2023-04-01T12:52:03;98838.47;;;13.67;83.58
13705;BME280;6924;52.122;9.952;2023-04-01T12:58:15;98846.59;;;13.46;85.48
13705;BME280;6924;52.122;9.952;2023-04-01T13:04:17;98850.56;;;13.64;84.02
13705;BME280;6924;52.122;9.952;2023-04-01T13:07:04;98847.44;;;13.69;84.03
13705;BME280;6924;52.122;9.952;2023-04-01T13:09:40;98859.78;;;13.57;83.62
13705;BME280;6924;52.122;9.952;2023-04-01T13:12:36;98854.09;;;13.57;82.47
13705;BME280;6924;52.122;9.952;2023-04-01T13:15:15;98862.25;;;13.59;81.49
13705;BME280;6924;52.122;9.952;2023-04-01T13:17:51;98868.38;;;13.61;80.12
13705;BME280;6924;52.122;9.952;2023-04-01T13:20:27;98864.22;;;13.55;81.22
13705;BME280;6924;52.122;9.952;2023-04-01T13:23:06;98870.72;;;13.36;80.95
13705;BME280;6924;52.122;9.952;2023-04-01T13:25:38;98867.81;;;13.32;83.22
13705;BME280;6924;52.122;9.952;2023-04-01T13:28:11;98872.50;;;13.44;82.26
13705;BME280;6924;52.122;9.952;2023-04-01T13:30:44;98872.75;;;13.35;82.50
13705;BME280;6924;52.122;9.952;2023-04-01T13:33:17;98872.66;;;13.12;82.07
13705;BME280;6924;52.122;9.952;2023-04-01T13:35:56;98874.69;;;13.12;83.87
13705;BME280;6924;52.122;9.952;2023-04-01T13:41:43;98886.72;;;12.70;87.66
13705;BME280;6924;52.122;9.952;2023-04-01T13:44:19;98895.66;;;12.52;90.82
13705;BME280;6924;52.122;9.952;2023-04-01T13:46:59;98896.41;;;12.33;94.25
13705;BME280;6924;52.122;9.952;2023-04-01T13:49:42;98898.94;;;12.38;96.26
13705;BME280;6924;52.122;9.952;2023-04-01T13:52:40;98901.59;;;12.31;98.73
13705;BME280;6924;52.122;9.952;2023-04-01T13:55:22;98909.84;;;12.20;97.77
13705;BME280;6924;52.122;9.952;2023-04-01T13:58:07;98914.69;;;12.20;99.16
13705;BME280;6924;52.122;9.952;2023-04-01T14:00:53;98914.41;;;12.25;100.00
13705;BME280;6924;52.122;9.952;2023-04-01T14:03:30;98920.25;;;12.32;100.00
13705;BME280;6924;52.122;9.952;2023-04-01T14:06:23;98928.41;;;12.34;100.00
13705;BME280;6924;52.122;9.952;2023-04-01T14:09:16;98934.88;;;12.34;100.00
13705;BME280;6924;52.122;9.952;2023-04-01T14:11:53;98931.59;;;12.32;99.70
13705;BME280;6924;52.122;9.952;2023-04-01T14:14:32;98942.00;;;12.12;98.62
13705;BME280;6924;52.122;9.952;2023-04-01T14:17:20;98942.41;;;11.95;99.14
13705;BME280;6924;52.122;9.952;2023-04-01T14:20:06;98936.16;;;11.61;100.00
13705;BME280;6924;52.122;9.952;2023-04-01T14:22:42;98946.16;;;11.43;100.00
13705;BME280;6924;52.122;9.952;2023-04-01T14:25:32;98946.72;;;11.48;100.00
13705;BME280;6924;52.122;9.952;2023-04-01T14:28:15;98960.00;;;11.60;100.00
13705;BME280;6924;52.122;9.952;2023-04-01T14:31:04;98949.97;;;11.63;100.00
13705;BME280;6924;52.122;9.952;2023-04-01T14:33:43;98962.31;;;11.70;100.00
13705;BME280;6924;52.122;9.952;2023-04-01T14:36:32;98961.94;;;11.72;100.00